createdAt,value
2022-09-12T00:02:02.372Z,20.85
2022-09-12T00:07:07.140Z,20.80
2022-09-12T00:12:06.640Z,20.77
2022-09-12T00:17:05.089Z,20.73
2022-09-12T00:22:04.488Z,20.65
2022-09-12T00:27:11.345Z,20.79
2022-09-12T00:32:12.415Z,20.64
2022-09-12T00:37:21.596Z,20.48
2022-09-12T00:42:20.965Z,20.72
2022-09-12T00:47:23.899Z,20.44
2022-09-12T00:52:28.463Z,20.34
2022-09-12T00:57:41.831Z,20.59
2022-09-12T01:02:55.941Z,20.37
2022-09-12T01:07:55.458Z,20.33
2022-09-12T01:12:56.621Z,20.25
2022-09-12T01:18:10.709Z,20.41
2022-09-12T01:23:40.900Z,20.21
2022-09-12T01:29:05.011Z,20.30
2022-09-12T01:34:21.025Z,20.15
2022-09-12T01:39:41.330Z,19.94
2022-09-12T01:45:20.031Z,19.90
2022-09-12T01:50:25.029Z,19.78
2022-09-12T01:55:27.341Z,19.68
2022-09-12T02:00:36.668Z,19.47
2022-09-12T02:05:42.132Z,19.45
2022-09-12T02:10:54.777Z,19.47
2022-09-12T02:16:10.963Z,19.46
2022-09-12T02:21:09.692Z,19.49
2022-09-12T02:26:27.179Z,19.23
2022-09-12T02:31:42.627Z,19.37
2022-09-12T02:36:54.967Z,18.95
2022-09-12T02:41:53.234Z,18.82
2022-09-12T02:46:55.114Z,18.65
2022-09-12T02:51:52.594Z,18.81
2022-09-12T02:56:53.758Z,18.74
2022-09-12T03:02:14.310Z,18.61
2022-09-12T03:07:46.944Z,18.71
2022-09-12T03:12:57.551Z,18.24
2022-09-12T03:18:08.369Z,18.33
2022-09-12T03:23:12.966Z,18.17
2022-09-12T03:28:15.163Z,18.30
2022-09-12T03:33:18.580Z,17.99
2022-09-12T03:38:16.977Z,18.23
2022-09-12T03:43:15.198Z,18.16
2022-09-12T03:48:13.452Z,18.12
2022-09-12T03:53:17.248Z,18.06
2022-09-12T03:58:18.512Z,17.81
2022-09-12T04:03:17.295Z,17.64
2022-09-12T04:08:15.383Z,17.66
2022-09-12T04:13:14.849Z,17.53
2022-09-12T04:18:12.939Z,17.62
2022-09-12T04:23:12.496Z,17.60
2022-09-12T04:28:10.343Z,17.44
2022-09-12T04:33:08.801Z,17.57
2022-09-12T04:38:08.900Z,17.54
2022-09-12T04:43:10.141Z,17.55
2022-09-12T04:48:10.161Z,17.51
2022-09-12T04:53:08.968Z,17.43
2022-09-12T04:58:07.425Z,17.42
2022-09-12T05:03:05.646Z,17.49
2022-09-12T05:08:09.760Z,17.60
2022-09-12T05:13:09.601Z,17.77
2022-09-12T05:18:10.809Z,17.64
2022-09-12T05:23:08.214Z,17.89
2022-09-12T05:28:06.626Z,17.82
2022-09-12T05:33:06.636Z,17.85
2022-09-12T05:38:06.338Z,17.96
2022-09-12T05:43:05.380Z,18.22
2022-09-12T05:48:03.914Z,18.11
2022-09-12T05:53:02.897Z,18.16
2022-09-12T05:58:00.765Z,18.25
2022-09-12T06:02:59.368Z,18.27
2022-09-12T06:07:57.754Z,18.48
2022-09-12T06:12:56.102Z,18.59
2022-09-12T06:17:54.788Z,18.70
2022-09-12T06:22:57.157Z,18.88
2022-09-12T06:27:55.661Z,19.10
2022-09-12T06:32:57.132Z,19.16
2022-09-12T06:37:54.981Z,19.47
2022-09-12T06:42:52.695Z,19.60
2022-09-12T06:48:03.371Z,19.92
2022-09-12T06:53:04.256Z,20.10
2022-09-12T06:58:03.574Z,20.25
2022-09-12T07:03:01.974Z,20.50
2022-09-12T07:08:00.474Z,20.74
2022-09-12T07:13:02.303Z,20.97
2022-09-12T07:18:01.065Z,20.81
2022-09-12T07:23:00.351Z,20.62
2022-09-12T07:27:58.519Z,20.66
2022-09-12T07:33:06.956Z,20.66
2022-09-12T07:38:06.230Z,20.44
2022-09-12T07:43:05.601Z,20.36
2022-09-12T07:48:04.986Z,20.64
2022-09-12T07:53:04.802Z,20.96
2022-09-12T07:58:04.105Z,21.30
2022-09-12T08:03:04.597Z,21.25
2022-09-12T08:08:03.029Z,21.48
2022-09-12T08:13:03.818Z,21.91
2022-09-12T08:18:02.703Z,21.71
2022-09-12T08:23:02.361Z,21.90
2022-09-12T08:28:01.596Z,21.81
2022-09-12T08:33:00.284Z,22.05
2022-09-12T08:37:59.910Z,22.22
2022-09-12T08:43:14.453Z,22.17
2022-09-12T08:48:13.229Z,22.22
2022-09-12T08:53:16.355Z,22.55
2022-09-12T08:58:20.461Z,22.81
2022-09-12T09:03:34.359Z,22.92
2022-09-12T09:08:40.796Z,23.26
2022-09-12T09:14:14.112Z,23.41
2022-09-12T09:19:27.169Z,23.24
2022-09-12T09:24:40.882Z,23.46
2022-09-12T09:29:47.209Z,23.47
2022-09-12T09:34:46.539Z,23.62
2022-09-12T09:40:13.590Z,23.79
2022-09-12T09:45:18.079Z,23.79
2022-09-12T09:50:17.345Z,23.70
2022-09-12T09:55:29.323Z,23.87
2022-09-12T10:00:33.954Z,23.97
2022-09-12T10:05:48.424Z,24.22
2022-09-12T10:11:15.691Z,24.08
2022-09-12T10:16:30.604Z,24.31
2022-09-12T10:21:47.114Z,24.48
2022-09-12T10:26:57.257Z,24.47
2022-09-12T10:32:05.190Z,24.93
2022-09-12T10:37:10.314Z,25.00
2022-09-12T10:42:08.026Z,25.43
2022-09-12T10:47:31.801Z,25.12
2022-09-12T10:52:30.195Z,24.87
2022-09-12T10:57:33.682Z,25.18
2022-09-12T11:02:49.033Z,25.43
2022-09-12T11:07:50.262Z,25.40
2022-09-12T11:13:01.999Z,25.30
2022-09-12T11:18:19.610Z,25.10
2022-09-12T11:23:45.580Z,25.24
2022-09-12T11:29:22.467Z,25.15
2022-09-12T11:34:33.250Z,25.35
2022-09-12T11:39:40.319Z,25.83
2022-09-12T11:44:48.635Z,26.21
2022-09-12T11:49:52.187Z,26.14
2022-09-12T11:55:07.035Z,26.16
2022-09-12T12:00:10.618Z,25.96
2022-09-12T12:05:30.417Z,26.37
2022-09-12T12:10:39.756Z,26.33
2022-09-12T12:15:39.480Z,26.55
2022-09-12T12:20:40.393Z,26.69
2022-09-12T12:25:44.252Z,26.78
2022-09-12T12:30:56.299Z,26.60
2022-09-12T12:36:02.862Z,26.72
2022-09-12T12:41:22.378Z,26.92
2022-09-12T12:46:25.748Z,27.07
2022-09-12T12:51:35.833Z,27.35
2022-09-12T12:56:41.540Z,27.72
2022-09-12T13:01:49.515Z,28.23
2022-09-12T13:07:08.118Z,28.03
2022-09-12T13:12:13.268Z,27.69
2022-09-12T13:17:34.497Z,27.51
2022-09-12T13:22:41.020Z,26.83
2022-09-12T13:27:39.608Z,26.43
2022-09-12T13:32:38.384Z,26.18
2022-09-12T13:38:04.972Z,26.39
2022-09-12T13:43:13.169Z,26.23
2022-09-12T13:48:17.480Z,26.26
2022-09-12T13:53:18.581Z,26.17
2022-09-12T13:58:28.307Z,26.09
2022-09-12T14:03:49.085Z,26.06
2022-09-12T14:08:48.622Z,26.05
2022-09-12T14:13:49.736Z,27.04
2022-09-12T14:18:50.168Z,26.95
2022-09-12T14:23:49.061Z,26.72
2022-09-12T14:28:50.150Z,27.09
2022-09-12T14:33:50.157Z,26.82
2022-09-12T14:38:51.019Z,26.74
2022-09-12T14:43:56.412Z,27.31
2022-09-12T14:49:31.368Z,27.08
2022-09-12T14:54:34.026Z,26.63
2022-09-12T14:59:41.882Z,26.46
2022-09-12T15:05:10.957Z,26.46
2022-09-12T15:10:27.661Z,26.07
2022-09-12T15:15:29.609Z,25.86
2022-09-12T15:20:34.178Z,25.60
2022-09-12T15:25:33.224Z,24.39
2022-09-12T15:30:33.982Z,21.96
2022-09-12T15:35:34.320Z,21.82
2022-09-12T15:40:38.106Z,21.88
2022-09-12T15:45:37.087Z,21.97
2022-09-12T15:50:36.313Z,22.23
2022-09-12T15:55:35.702Z,22.38
2022-09-12T16:00:34.880Z,22.54
2022-09-12T16:05:34.645Z,22.73
2022-09-12T16:10:33.130Z,22.89
2022-09-12T16:15:32.279Z,23.26
2022-09-12T16:20:33.986Z,23.42
2022-09-12T16:25:35.563Z,23.51
2022-09-12T16:30:37.401Z,23.43
2022-09-12T16:35:35.671Z,23.41
2022-09-12T16:40:34.397Z,23.71
2022-09-12T16:45:34.669Z,23.68
2022-09-12T16:50:32.967Z,23.60
2022-09-12T16:55:32.533Z,23.72
2022-09-12T17:00:31.043Z,23.90
2022-09-12T17:05:29.661Z,23.98
2022-09-12T17:10:28.197Z,23.78
2022-09-12T17:15:26.172Z,23.61
2022-09-12T17:20:28.792Z,23.35
2022-09-12T17:25:27.976Z,21.52
2022-09-12T17:30:25.996Z,20.71
2022-09-12T17:35:26.748Z,20.26
2022-09-12T17:40:48.783Z,20.10
2022-09-12T17:45:44.839Z,19.69
2022-09-12T17:50:44.169Z,19.01
2022-09-12T17:55:43.560Z,19.11
2022-09-12T18:01:01.907Z,19.20
2022-09-12T18:06:01.945Z,19.36
2022-09-12T18:11:06.909Z,19.27
2022-09-12T18:16:10.108Z,19.30
2022-09-12T18:21:09.217Z,19.22
2022-09-12T18:26:09.068Z,19.36
2022-09-12T18:31:13.948Z,19.27
2022-09-12T18:36:13.587Z,19.51
2022-09-12T18:41:16.522Z,19.38
2022-09-12T18:46:19.406Z,19.58
2022-09-12T18:51:22.434Z,19.51
2022-09-12T18:56:23.168Z,19.63
2022-09-12T19:01:33.066Z,19.87
2022-09-12T19:06:39.738Z,19.65
2022-09-12T19:11:40.977Z,19.80
2022-09-12T19:16:39.437Z,20.01
2022-09-12T19:21:37.940Z,19.96
2022-09-12T19:26:37.010Z,19.73
2022-09-12T19:31:37.729Z,19.76
2022-09-12T19:36:45.243Z,19.47
2022-09-12T19:41:49.521Z,19.42
2022-09-12T19:46:52.992Z,19.14
2022-09-12T19:51:52.561Z,19.45
2022-09-12T19:56:51.193Z,19.55
2022-09-12T20:01:48.815Z,19.53
2022-09-12T20:06:47.495Z,19.40
2022-09-12T20:11:46.095Z,19.46
2022-09-12T20:16:45.955Z,19.61
2022-09-12T20:21:45.271Z,19.33
2022-09-12T20:26:44.754Z,19.30
2022-09-12T20:31:44.335Z,19.05
2022-09-12T20:36:45.198Z,18.98
2022-09-12T20:41:45.599Z,18.99
2022-09-12T20:46:44.759Z,19.28
2022-09-12T20:51:43.970Z,19.45
2022-09-12T20:56:43.998Z,19.44
2022-09-12T21:01:44.896Z,19.65
2022-09-12T21:06:44.585Z,19.30
2022-09-12T21:11:44.381Z,19.30
2022-09-12T21:16:43.085Z,18.89
2022-09-12T21:21:43.669Z,18.75
2022-09-12T21:26:42.444Z,18.83
2022-09-12T21:32:36.332Z,19.57
2022-09-12T21:37:59.664Z,19.53
2022-09-12T21:42:59.263Z,19.42
2022-09-12T21:47:58.573Z,19.12
2022-09-12T21:52:56.954Z,18.95
2022-09-12T21:57:55.838Z,19.02
2022-09-12T22:03:00.518Z,18.55
2022-09-12T22:08:00.842Z,18.52
2022-09-12T22:12:59.166Z,18.45
2022-09-12T22:17:57.590Z,18.67
2022-09-12T22:23:15.552Z,18.28
2022-09-12T22:28:14.205Z,18.20
2022-09-12T22:33:11.825Z,18.27
2022-09-12T22:38:11.105Z,18.36
2022-09-12T22:43:09.647Z,17.99
2022-09-12T22:48:09.331Z,18.22
2022-09-12T22:53:10.389Z,18.05
2022-09-12T22:58:08.593Z,17.75
2022-09-12T23:03:08.254Z,17.86
2022-09-12T23:08:09.583Z,17.45
2022-09-12T23:13:09.958Z,17.11
2022-09-12T23:18:11.905Z,17.21
2022-09-12T23:23:11.305Z,17.35
2022-09-12T23:28:08.739Z,17.70
2022-09-12T23:33:07.143Z,17.41
2022-09-12T23:38:09.513Z,17.53
2022-09-12T23:43:09.970Z,17.52
2022-09-12T23:48:10.105Z,17.53
2022-09-12T23:53:07.376Z,17.11
2022-09-12T23:58:06.867Z,17.06
